createdAt,value
2023-02-16T00:00:22.551Z,7.50
2023-02-16T00:02:49.465Z,8.50
2023-02-16T00:05:26.927Z,9.02
2023-02-16T00:07:55.101Z,8.45
2023-02-16T00:10:22.697Z,9.50
2023-02-16T00:13:08.130Z,7.80
2023-02-16T00:15:35.124Z,8.77
2023-02-16T00:18:04.691Z,7.45
2023-02-16T00:22:58.463Z,7.68
2023-02-16T00:25:25.403Z,8.18
2023-02-16T00:27:52.531Z,7.43
2023-02-16T00:30:22.104Z,8.93
2023-02-16T00:32:50.498Z,8.38
2023-02-16T00:35:19.135Z,7.35
2023-02-16T00:37:49.369Z,6.47
2023-02-16T00:40:17.246Z,7.55
2023-02-16T00:42:47.289Z,9.15
2023-02-16T00:45:17.880Z,7.03
2023-02-16T00:47:47.285Z,9.27
2023-02-16T00:50:25.345Z,7.35
2023-02-16T00:52:52.061Z,7.50
2023-02-16T00:55:24.321Z,7.45
2023-02-16T00:58:05.091Z,7.85
2023-02-16T01:00:34.036Z,8.18
2023-02-16T01:03:04.496Z,7.63
2023-02-16T01:05:31.144Z,9.43
2023-02-16T01:08:18.809Z,7.28
2023-02-16T01:11:04.955Z,8.73
2023-02-16T01:13:36.736Z,8.15
2023-02-16T01:16:03.743Z,7.78
2023-02-16T01:18:31.555Z,8.52
2023-02-16T01:20:58.252Z,8.75
2023-02-16T01:23:25.011Z,8.20
2023-02-16T01:25:51.690Z,7.25
2023-02-16T01:28:22.137Z,8.77
2023-02-16T01:30:50.527Z,8.63
2023-02-16T01:33:17.605Z,7.53
2023-02-16T01:35:45.306Z,8.75
2023-02-16T01:38:19.007Z,8.02
2023-02-16T01:41:22.625Z,8.20
2023-02-16T01:44:21.064Z,8.82
2023-02-16T01:47:15.059Z,8.18
2023-02-16T01:49:41.729Z,8.73
2023-02-16T01:52:31.849Z,7.93
2023-02-16T01:55:26.536Z,7.82
2023-02-16T01:57:57.015Z,8.50
2023-02-16T02:00:49.350Z,9.10
2023-02-16T02:03:39.140Z,7.38
2023-02-16T02:06:10.275Z,8.00
2023-02-16T02:09:08.715Z,7.88
2023-02-16T02:11:57.588Z,6.43
2023-02-16T02:14:30.302Z,8.23
2023-02-16T02:16:59.467Z,7.60
2023-02-16T02:19:29.179Z,7.45
2023-02-16T02:23:08.534Z,9.30
2023-02-16T02:26:02.991Z,8.23
2023-02-16T02:28:40.051Z,8.38
2023-02-16T02:31:16.815Z,9.75
2023-02-16T02:34:11.441Z,8.02
2023-02-16T02:36:40.762Z,8.00
2023-02-16T02:39:34.738Z,9.10
2023-02-16T02:42:30.401Z,8.32
2023-02-16T02:45:30.627Z,10.90
2023-02-16T02:47:58.830Z,8.30
2023-02-16T02:51:05.422Z,8.32
2023-02-16T02:53:40.246Z,9.10
2023-02-16T02:56:28.198Z,8.93
2023-02-16T02:59:20.909Z,7.65
2023-02-16T03:01:52.635Z,10.00
2023-02-16T03:04:24.223Z,9.38
2023-02-16T03:06:53.890Z,7.63
2023-02-16T03:09:21.305Z,7.95
2023-02-16T03:12:08.739Z,9.07
2023-02-16T03:14:41.554Z,7.13
2023-02-16T03:17:31.519Z,9.35
2023-02-16T03:20:19.149Z,7.45
2023-02-16T03:23:04.661Z,8.32
2023-02-16T03:25:55.461Z,7.43
2023-02-16T03:28:44.236Z,15.15
2023-02-16T03:31:16.197Z,7.68
2023-02-16T03:33:43.451Z,7.68
2023-02-16T03:36:11.698Z,8.45
2023-02-16T03:38:39.476Z,7.28
2023-02-16T03:41:06.661Z,8.07
2023-02-16T03:43:33.705Z,9.60
2023-02-16T03:46:00.444Z,9.00
2023-02-16T03:48:27.196Z,8.50
2023-02-16T03:50:53.908Z,10.18
2023-02-16T03:53:20.615Z,9.98
2023-02-16T03:55:48.363Z,8.63
2023-02-16T03:58:21.885Z,9.32
2023-02-16T04:00:49.061Z,9.15
2023-02-16T04:03:16.363Z,9.05
2023-02-16T04:05:43.231Z,9.52
2023-02-16T04:08:10.353Z,8.75
2023-02-16T04:10:37.951Z,12.25
2023-02-16T04:13:05.082Z,9.93
2023-02-16T04:15:32.059Z,9.10
2023-02-16T04:17:59.391Z,9.27
2023-02-16T04:20:31.970Z,9.40
2023-02-16T04:22:58.818Z,7.70
2023-02-16T04:25:26.070Z,10.07
2023-02-16T04:27:53.371Z,8.57
2023-02-16T04:30:23.773Z,7.38
2023-02-16T04:32:51.241Z,7.53
2023-02-16T04:35:18.917Z,8.45
2023-02-16T04:37:45.718Z,10.10
2023-02-16T04:40:14.635Z,9.00
2023-02-16T04:42:42.601Z,9.35
2023-02-16T04:45:10.278Z,8.95
2023-02-16T04:47:37.487Z,7.32
2023-02-16T04:50:04.912Z,8.23
2023-02-16T04:52:32.186Z,8.30
2023-02-16T04:54:59.451Z,7.30
2023-02-16T04:57:26.173Z,8.80
2023-02-16T04:59:52.861Z,8.93
2023-02-16T05:02:19.565Z,8.25
2023-02-16T05:04:46.456Z,8.57
2023-02-16T05:07:13.390Z,8.45
2023-02-16T05:09:40.274Z,8.75
2023-02-16T05:12:25.904Z,7.47
2023-02-16T05:14:52.768Z,7.05
2023-02-16T05:17:22.191Z,7.45
2023-02-16T05:22:17.138Z,7.20
2023-02-16T05:24:44.703Z,8.00
2023-02-16T05:27:14.622Z,7.28
2023-02-16T05:29:41.648Z,7.75
2023-02-16T05:32:08.642Z,8.10
2023-02-16T05:34:35.447Z,9.65
2023-02-16T05:37:02.378Z,8.80
2023-02-16T05:39:29.213Z,9.07
2023-02-16T05:41:56.250Z,8.18
2023-02-16T05:44:23.153Z,9.88
2023-02-16T05:46:49.988Z,7.50
2023-02-16T05:49:18.111Z,7.13
2023-02-16T05:51:45.362Z,7.60
2023-02-16T05:54:17.157Z,8.30
2023-02-16T05:56:46.361Z,8.07
2023-02-16T05:59:13.834Z,7.18
2023-02-16T06:01:41.090Z,8.05
2023-02-16T06:04:13.205Z,7.38
2023-02-16T06:06:39.967Z,8.00
2023-02-16T06:09:08.440Z,6.35
2023-02-16T06:11:38.564Z,7.65
2023-02-16T06:14:17.639Z,7.72
2023-02-16T06:16:46.321Z,8.07
2023-02-16T06:19:14.300Z,7.03
2023-02-16T06:21:41.304Z,7.95
2023-02-16T06:24:09.791Z,8.27
2023-02-16T06:26:37.341Z,7.57
2023-02-16T06:29:04.988Z,7.63
2023-02-16T06:31:33.279Z,7.25
2023-02-16T06:34:03.820Z,8.52
2023-02-16T06:36:30.917Z,8.13
2023-02-16T06:38:57.792Z,7.63
2023-02-16T06:41:40.215Z,6.88
2023-02-16T06:44:12.399Z,7.97
2023-02-16T06:46:40.335Z,7.97
2023-02-16T06:49:07.190Z,7.55
2023-02-16T06:51:33.778Z,7.70
2023-02-16T06:54:00.571Z,7.50
2023-02-16T06:56:27.967Z,6.07
2023-02-16T06:58:54.732Z,7.68
2023-02-16T07:01:25.868Z,7.25
2023-02-16T07:03:55.114Z,8.00
2023-02-16T07:06:24.282Z,8.00
2023-02-16T07:08:52.216Z,7.38
2023-02-16T07:11:19.314Z,7.63
2023-02-16T07:13:46.608Z,7.70
2023-02-16T07:16:14.439Z,6.50
2023-02-16T07:18:41.739Z,6.72
2023-02-16T07:21:08.469Z,7.45
2023-02-16T07:23:35.237Z,7.75
2023-02-16T07:26:01.926Z,8.55
2023-02-16T07:28:28.684Z,7.18
2023-02-16T07:30:55.573Z,7.53
2023-02-16T07:33:22.379Z,6.53
2023-02-16T07:35:50.284Z,6.50
2023-02-16T07:38:16.986Z,9.15
2023-02-16T07:40:43.705Z,5.95
2023-02-16T07:43:10.615Z,7.13
2023-02-16T07:45:37.275Z,7.03
2023-02-16T07:48:04.292Z,7.43
2023-02-16T07:50:31.032Z,7.60
2023-02-16T07:52:57.690Z,6.75
2023-02-16T07:55:24.339Z,7.15
2023-02-16T07:57:54.748Z,6.68
2023-02-16T08:00:22.328Z,7.10
2023-02-16T08:02:49.582Z,7.32
2023-02-16T08:05:16.776Z,7.55
2023-02-16T08:07:45.678Z,8.70
2023-02-16T08:10:13.759Z,8.63
2023-02-16T08:12:40.451Z,7.20
2023-02-16T08:15:07.915Z,7.30
2023-02-16T08:17:37.775Z,6.55
2023-02-16T08:20:06.217Z,6.90
2023-02-16T08:22:32.900Z,6.68
2023-02-16T08:24:59.947Z,5.82
2023-02-16T08:27:26.914Z,6.93
2023-02-16T08:29:54.224Z,7.18
2023-02-16T08:32:21.060Z,7.25
2023-02-16T08:34:48.150Z,6.88
2023-02-16T08:37:14.938Z,6.32
2023-02-16T08:39:42.334Z,6.53
2023-02-16T08:42:12.149Z,6.32
2023-02-16T08:44:40.315Z,8.60
2023-02-16T08:47:07.034Z,7.45
2023-02-16T08:49:33.727Z,7.22
2023-02-16T08:52:01.504Z,7.70
2023-02-16T08:54:30.658Z,8.48
2023-02-16T08:56:59.783Z,6.22
2023-02-16T08:59:28.851Z,6.65
2023-02-16T09:02:16.494Z,8.57
2023-02-16T09:04:43.334Z,6.85
2023-02-16T09:07:10.587Z,6.75
2023-02-16T09:09:37.312Z,6.53
2023-02-16T09:12:04.197Z,6.28
2023-02-16T09:14:31.183Z,6.68
2023-02-16T09:16:58.246Z,8.02
2023-02-16T09:19:25.962Z,5.80
2023-02-16T09:21:56.251Z,6.10
2023-02-16T09:24:22.857Z,7.03
2023-02-16T09:27:08.183Z,5.90
2023-02-16T09:29:35.265Z,7.13
2023-02-16T09:32:02.645Z,7.25
2023-02-16T09:34:29.874Z,8.38
2023-02-16T09:36:56.634Z,6.43
2023-02-16T09:39:23.325Z,6.65
2023-02-16T09:42:20.289Z,6.43
2023-02-16T09:44:55.481Z,7.38
2023-02-16T09:47:31.506Z,6.22
2023-02-16T09:50:03.876Z,5.55
2023-02-16T09:52:37.074Z,6.45
2023-02-16T09:55:18.737Z,8.32
2023-02-16T09:57:55.938Z,7.53
2023-02-16T10:00:37.955Z,8.10
2023-02-16T10:03:18.201Z,6.72
2023-02-16T10:05:52.854Z,5.60
2023-02-16T10:08:30.082Z,6.25
2023-02-16T10:11:30.968Z,6.38
2023-02-16T10:14:02.938Z,6.05
2023-02-16T10:16:40.045Z,6.53
2023-02-16T10:19:19.842Z,6.45
2023-02-16T10:21:52.483Z,7.45
2023-02-16T10:24:19.502Z,6.18
2023-02-16T10:26:52.056Z,6.43
2023-02-16T10:29:23.240Z,6.07
2023-02-16T10:32:01.812Z,6.72
2023-02-16T10:34:48.887Z,9.73
2023-02-16T10:37:27.500Z,6.35
2023-02-16T10:40:15.233Z,7.07
2023-02-16T10:42:53.452Z,6.63
2023-02-16T10:45:28.249Z,6.55
2023-02-16T10:47:54.948Z,6.32
2023-02-16T10:50:47.950Z,6.60
2023-02-16T10:53:14.605Z,5.85
2023-02-16T10:55:41.455Z,7.43
2023-02-16T10:58:27.022Z,6.53
2023-02-16T11:01:02.429Z,6.20
2023-02-16T11:03:33.529Z,6.38
2023-02-16T11:06:25.476Z,5.95
2023-02-16T11:08:57.205Z,7.85
2023-02-16T11:11:42.908Z,6.28
2023-02-16T11:14:23.497Z,6.57
2023-02-16T11:17:16.452Z,6.47
2023-02-16T11:20:01.434Z,8.40
2023-02-16T11:22:37.496Z,6.78
2023-02-16T11:25:22.748Z,6.38
2023-02-16T11:27:59.626Z,6.45
2023-02-16T11:30:32.275Z,5.65
2023-02-16T11:33:02.496Z,5.93
2023-02-16T11:35:31.812Z,6.47
2023-02-16T11:40:34.510Z,6.80
2023-02-16T11:43:02.460Z,7.13
2023-02-16T11:45:35.412Z,7.25
2023-02-16T11:48:08.778Z,6.60
2023-02-16T11:50:40.322Z,6.13
2023-02-16T11:53:09.984Z,7.22
2023-02-16T11:55:39.580Z,6.22
2023-02-16T11:58:27.813Z,6.20
2023-02-16T12:01:29.522Z,6.18
2023-02-16T12:04:35.301Z,5.70
2023-02-16T12:07:32.403Z,5.68
2023-02-16T12:10:28.611Z,5.57
2023-02-16T12:13:08.056Z,5.18
2023-02-16T12:15:34.929Z,5.40
2023-02-16T12:18:38.870Z,6.45
2023-02-16T12:21:35.820Z,5.85
2023-02-16T12:24:04.875Z,5.20
2023-02-16T12:26:53.771Z,6.50
2023-02-16T12:29:44.909Z,6.85
2023-02-16T12:32:37.348Z,6.32
2023-02-16T12:35:23.723Z,7.25
2023-02-16T12:38:08.546Z,6.93
2023-02-16T12:40:53.680Z,6.15
2023-02-16T12:43:34.805Z,6.55
2023-02-16T12:46:10.421Z,6.22
2023-02-16T12:48:47.141Z,5.95
2023-02-16T12:51:20.339Z,5.38
2023-02-16T12:54:10.208Z,5.55
2023-02-16T12:56:43.405Z,6.00
2023-02-16T12:59:25.086Z,6.40
2023-02-16T13:01:56.079Z,6.88
2023-02-16T13:04:50.608Z,6.43
2023-02-16T13:07:34.622Z,6.63
2023-02-16T13:10:04.855Z,7.15
2023-02-16T13:12:41.702Z,7.10
2023-02-16T13:15:23.456Z,7.30
2023-02-16T13:17:57.841Z,6.00
2023-02-16T13:20:25.321Z,5.32
2023-02-16T13:22:54.521Z,5.68
2023-02-16T13:25:30.524Z,6.65
2023-02-16T13:28:23.169Z,6.60
2023-02-16T13:31:17.454Z,6.15
2023-02-16T13:34:12.585Z,5.70
2023-02-16T13:36:54.964Z,5.65
2023-02-16T13:39:41.393Z,5.95
2023-02-16T13:42:33.959Z,5.35
2023-02-16T13:45:05.874Z,5.50
2023-02-16T13:47:37.946Z,6.50
2023-02-16T13:50:08.662Z,6.80
2023-02-16T13:52:43.379Z,5.70
2023-02-16T13:55:27.367Z,5.90
2023-02-16T13:58:08.125Z,5.97
2023-02-16T14:00:45.497Z,5.80
2023-02-16T14:03:22.266Z,6.40
2023-02-16T14:05:51.335Z,5.68
2023-02-16T14:08:30.412Z,6.50
2023-02-16T14:11:03.051Z,6.35
2023-02-16T14:13:29.581Z,6.68
2023-02-16T14:15:59.242Z,6.03
2023-02-16T14:18:33.283Z,6.07
2023-02-16T14:21:06.406Z,5.35
2023-02-16T14:23:35.218Z,5.70
2023-02-16T14:26:07.224Z,5.03
2023-02-16T14:28:35.359Z,6.60
2023-02-16T14:31:15.149Z,6.30
2023-02-16T14:34:06.501Z,5.55
2023-02-16T14:36:34.095Z,5.63
2023-02-16T14:39:01.557Z,6.05
2023-02-16T14:41:36.989Z,6.53
2023-02-16T14:44:06.615Z,5.10
2023-02-16T14:47:10.589Z,4.88
2023-02-16T14:50:11.733Z,5.55
2023-02-16T14:52:57.566Z,5.90
2023-02-16T14:55:43.538Z,7.47
2023-02-16T14:58:35.924Z,6.10
2023-02-16T15:01:06.093Z,5.45
2023-02-16T15:03:41.009Z,6.68
2023-02-16T15:06:14.468Z,5.60
2023-02-16T15:08:48.601Z,5.30
2023-02-16T15:11:15.745Z,4.43
2023-02-16T15:13:43.976Z,5.80
2023-02-16T15:16:15.297Z,6.05
2023-02-16T15:18:48.633Z,5.20
2023-02-16T15:21:20.719Z,5.85
2023-02-16T15:23:52.812Z,5.53
2023-02-16T15:26:24.535Z,5.60
2023-02-16T15:28:57.433Z,6.15
2023-02-16T15:31:37.174Z,4.50
2023-02-16T15:34:12.891Z,5.35
2023-02-16T15:36:42.650Z,4.68
2023-02-16T15:39:15.488Z,5.65
2023-02-16T15:42:17.291Z,5.25
2023-02-16T15:44:45.113Z,6.30
2023-02-16T15:47:24.232Z,4.57
2023-02-16T15:49:52.245Z,4.65
2023-02-16T15:52:48.431Z,4.25
2023-02-16T15:55:15.260Z,4.18
2023-02-16T15:57:41.938Z,4.10
2023-02-16T16:00:19.349Z,3.78
2023-02-16T16:02:53.193Z,3.85
2023-02-16T16:05:40.887Z,3.80
2023-02-16T16:08:13.141Z,5.10
2023-02-16T16:10:42.148Z,4.15
2023-02-16T16:13:17.801Z,5.35
2023-02-16T16:15:48.581Z,4.70
2023-02-16T16:18:50.191Z,5.40
2023-02-16T16:21:24.449Z,5.10
2023-02-16T16:24:01.034Z,3.67
2023-02-16T16:26:30.513Z,4.65
2023-02-16T16:31:23.941Z,3.65
2023-02-16T16:34:04.671Z,5.05
2023-02-16T16:36:47.138Z,4.80
2023-02-16T16:39:17.080Z,4.10
2023-02-16T16:42:23.626Z,4.82
2023-02-16T16:45:21.273Z,5.15
2023-02-16T16:47:52.290Z,4.40
2023-02-16T16:50:33.329Z,4.53
2023-02-16T16:53:00.205Z,4.43
2023-02-16T16:55:30.283Z,4.30
2023-02-16T16:58:00.369Z,4.40
2023-02-16T17:00:33.805Z,3.63
2023-02-16T17:03:02.399Z,4.68
2023-02-16T17:05:29.320Z,4.33
2023-02-16T17:07:56.128Z,3.60
2023-02-16T17:10:24.423Z,4.15
2023-02-16T17:12:58.128Z,3.88
2023-02-16T17:15:32.537Z,4.47
2023-02-16T17:18:00.324Z,4.20
2023-02-16T17:20:27.043Z,4.68
2023-02-16T17:22:53.848Z,4.15
2023-02-16T17:25:20.689Z,4.15
2023-02-16T17:27:47.389Z,4.78
2023-02-16T17:30:14.496Z,3.63
2023-02-16T17:32:41.261Z,3.80
2023-02-16T17:35:08.267Z,4.28
2023-02-16T17:37:35.616Z,4.20
2023-02-16T17:40:04.284Z,3.40
2023-02-16T17:42:31.552Z,3.77
2023-02-16T17:44:58.495Z,3.55
2023-02-16T17:47:25.294Z,3.78
2023-02-16T17:49:52.133Z,3.63
2023-02-16T17:52:18.881Z,4.75
2023-02-16T17:54:45.650Z,4.70
2023-02-16T17:57:13.172Z,3.83
2023-02-16T17:59:42.133Z,4.65
2023-02-16T18:02:11.630Z,4.47
2023-02-16T18:04:56.755Z,6.10
2023-02-16T18:07:23.453Z,5.43
2023-02-16T18:09:50.249Z,4.53
2023-02-16T18:12:16.914Z,3.75
2023-02-16T18:14:43.579Z,3.40
2023-02-16T18:17:12.316Z,4.80
2023-02-16T18:19:38.996Z,3.53
2023-02-16T18:22:05.603Z,4.28
2023-02-16T18:24:32.501Z,3.63
2023-02-16T18:26:59.291Z,4.13
2023-02-16T18:29:26.000Z,4.07
2023-02-16T18:31:52.916Z,5.85
2023-02-16T18:34:19.808Z,3.38
2023-02-16T18:36:46.638Z,4.63
2023-02-16T18:39:31.827Z,4.70
2023-02-16T18:41:58.428Z,4.88
2023-02-16T18:44:25.276Z,4.60
2023-02-16T18:46:52.063Z,4.00
2023-02-16T18:49:18.920Z,5.05
2023-02-16T18:51:45.821Z,6.15
2023-02-16T18:54:12.388Z,4.57
2023-02-16T18:56:40.598Z,4.57
2023-02-16T18:59:07.295Z,4.47
2023-02-16T19:01:34.283Z,4.90
2023-02-16T19:04:02.555Z,5.55
2023-02-16T19:06:29.726Z,4.22
2023-02-16T19:08:58.541Z,4.43
2023-02-16T19:11:28.159Z,4.60
2023-02-16T19:13:54.773Z,3.78
2023-02-16T19:16:21.568Z,4.07
2023-02-16T19:18:48.304Z,5.07
2023-02-16T19:21:15.285Z,4.53
2023-02-16T19:23:41.953Z,4.60
2023-02-16T19:26:12.315Z,4.57
2023-02-16T19:28:40.026Z,4.18
2023-02-16T19:31:09.563Z,4.60
2023-02-16T19:33:55.174Z,5.63
2023-02-16T19:36:23.411Z,4.75
2023-02-16T19:38:50.457Z,5.60
2023-02-16T19:41:22.441Z,3.72
2023-02-16T19:43:49.585Z,5.28
2023-02-16T19:46:16.317Z,5.35
2023-02-16T19:48:43.677Z,4.45
2023-02-16T19:51:11.097Z,4.30
2023-02-16T19:53:39.126Z,7.70
2023-02-16T19:56:11.054Z,6.38
2023-02-16T19:58:37.881Z,4.38
2023-02-16T20:01:12.752Z,5.55
2023-02-16T20:03:39.874Z,4.43
2023-02-16T20:06:21.139Z,6.82
2023-02-16T20:08:49.300Z,5.10
2023-02-16T20:11:18.545Z,6.00
2023-02-16T20:13:45.303Z,5.45
2023-02-16T20:16:12.947Z,5.25
2023-02-16T20:18:40.793Z,5.20
2023-02-16T20:21:12.098Z,4.25
2023-02-16T20:23:39.786Z,5.20
2023-02-16T20:26:16.046Z,7.10
2023-02-16T20:28:42.683Z,5.18
2023-02-16T20:31:40.389Z,6.28
2023-02-16T20:34:07.945Z,5.80
2023-02-16T20:36:36.316Z,4.53
2023-02-16T20:39:05.282Z,6.18
2023-02-16T20:41:32.078Z,5.95
2023-02-16T20:43:59.050Z,4.72
2023-02-16T20:46:26.165Z,5.93
2023-02-16T20:48:54.032Z,5.15
2023-02-16T20:51:21.335Z,5.75
2023-02-16T20:53:48.679Z,5.05
2023-02-16T20:56:24.005Z,4.78
2023-02-16T20:58:53.202Z,6.78
2023-02-16T21:01:22.095Z,5.88
2023-02-16T21:03:50.423Z,8.70
2023-02-16T21:06:17.762Z,6.43
2023-02-16T21:08:44.613Z,5.93
2023-02-16T21:11:11.815Z,6.18
2023-02-16T21:13:39.897Z,5.38
2023-02-16T21:16:08.013Z,5.50
2023-02-16T21:18:35.634Z,5.90
2023-02-16T21:21:03.759Z,6.72
2023-02-16T21:23:31.432Z,5.03
2023-02-16T21:26:03.653Z,4.72
2023-02-16T21:28:30.675Z,6.20
2023-02-16T21:31:02.426Z,7.25
2023-02-16T21:33:29.093Z,5.10
2023-02-16T21:36:05.282Z,6.68
2023-02-16T21:38:32.402Z,5.25
2023-02-16T21:41:23.155Z,5.88
2023-02-16T21:44:11.861Z,5.07
2023-02-16T21:46:39.400Z,4.80
2023-02-16T21:49:09.448Z,5.57
2023-02-16T21:51:41.138Z,5.97
2023-02-16T21:54:14.892Z,4.32
2023-02-16T21:56:43.218Z,5.70
2023-02-16T21:59:15.457Z,4.50
2023-02-16T22:01:48.113Z,5.78
2023-02-16T22:04:17.949Z,4.55
2023-02-16T22:06:47.013Z,4.93
2023-02-16T22:09:20.118Z,4.00
2023-02-16T22:11:47.759Z,4.15
2023-02-16T22:14:14.576Z,5.47
2023-02-16T22:16:41.580Z,5.97
2023-02-16T22:19:11.976Z,5.40
2023-02-16T22:21:41.527Z,4.93
2023-02-16T22:24:11.041Z,4.38
2023-02-16T22:29:06.763Z,4.97
2023-02-16T22:31:34.294Z,4.82
2023-02-16T22:34:04.179Z,3.92
2023-02-16T22:36:31.401Z,5.28
2023-02-16T22:38:58.238Z,4.65
2023-02-16T22:41:25.722Z,5.05
2023-02-16T22:43:54.520Z,4.35
2023-02-16T22:46:22.470Z,6.70
2023-02-16T22:48:49.946Z,5.35
2023-02-16T22:51:17.821Z,4.60
2023-02-16T22:53:44.984Z,5.82
2023-02-16T22:56:14.424Z,3.83
2023-02-16T23:01:21.240Z,3.95
2023-02-16T23:03:50.180Z,5.03
2023-02-16T23:06:20.464Z,5.07
2023-02-16T23:08:52.341Z,3.90
2023-02-16T23:11:19.118Z,4.75
2023-02-16T23:13:45.943Z,3.92
2023-02-16T23:16:15.988Z,4.68
2023-02-16T23:18:44.343Z,4.95
2023-02-16T23:21:17.222Z,4.30
2023-02-16T23:23:44.685Z,5.65
2023-02-16T23:26:11.450Z,3.97
2023-02-16T23:28:40.180Z,4.55
2023-02-16T23:31:07.756Z,4.17
2023-02-16T23:33:34.583Z,3.58
2023-02-16T23:36:01.328Z,3.92
2023-02-16T23:38:28.172Z,5.88
2023-02-16T23:40:59.520Z,4.40
2023-02-16T23:43:27.093Z,5.28
2023-02-16T23:45:54.102Z,4.70
2023-02-16T23:48:21.385Z,4.30
2023-02-16T23:50:49.407Z,4.95
2023-02-16T23:53:17.277Z,3.40
2023-02-16T23:55:43.991Z,4.95
2023-02-16T23:58:10.662Z,4.15
